This is the latest recevied weather packets stored in our database for station/object KF6TYS-13. If no packets are shown the sender has not sent any weather packets the latest 10 day(s).
| Time | Temp. | Humidity | Pressure | Rain* | Wind** | Luminosity | Snow |
|---|---|---|---|---|---|---|---|
| 1778225417 | 55.56° C | 100% | 1017.1 hPa | 0 mm | - | - | - |
| 1778223616 | 55.56° C | 100% | 1017.1 hPa | 0 mm | - | - | - |
| 1778221815 | 55.56° C | 100% | 1016.9 hPa | 0 mm | - | - | - |
| 1778220030 | 55.56° C | 100% | 1017 hPa | 0 mm | - | - | - |
| 1778218214 | 55.56° C | 100% | 1016.9 hPa | 0 mm | - | - | - |
| 1778216413 | 55.56° C | 100% | 1016.8 hPa | 0 mm | - | - | - |
| 1778214612 | 56.11° C | 100% | 1016.8 hPa | 0 mm | - | - | - |
| 1778212812 | 56.11° C | 100% | 1016.2 hPa | 0 mm | - | - | - |
| 1778211010 | 56.11° C | 100% | 1015.8 hPa | 0 mm | - | - | - |
| 1778209209 | 56.11° C | 97% | 1015.5 hPa | 0 mm | - | - | - |
| 1778207409 | 56.67° C | 91% | 1015.2 hPa | 0 mm | - | - | - |
| 1777840223 | 52.78° C | 77% | 1011.9 hPa | 0 mm | - | - | - |
| 1777838422 | 53.33° C | 81% | 1012.1 hPa | 0 mm | - | - | - |
| 1777836622 | 54.44° C | 81% | 1012.2 hPa | 0 mm | - | - | - |
| 1777834822 | 54.44° C | 83% | 1012.2 hPa | 0 mm | - | - | - |
| 1777833020 | 54.44° C | 82% | 1012.1 hPa | 0 mm | - | - | - |
| 1777831219 | 54.44° C | 82% | 1012.3 hPa | 0 mm | - | - | - |
| 1777829417 | 54.44° C | 90% | 1012 hPa | 0 mm | - | - | - |
| 1777827618 | 54.44° C | 95% | 1012 hPa | 0 mm | - | - | - |
| 1777825816 | 54.44° C | 97% | 1011.9 hPa | 0 mm | - | - | - |
| 1777824015 | 53.89° C | 100% | 1011.7 hPa | 0 mm | - | - | - |
| 1777822215 | 53.89° C | 100% | 1011.5 hPa | 0 mm | - | - | - |
| 1777820413 | 53.89° C | 100% | 1011.2 hPa | 0 mm | - | - | - |
| 1777818613 | 53.89° C | 100% | 1010.9 hPa | 0 mm | - | - | - |
| 1777816812 | 53.89° C | 100% | 1010.4 hPa | 0 mm | - | - | - |
* Rain latest hour (hover to see other rain measurements)
** Current wind speed in m/s (hover to see current wind gust speed)